createdAt,value
2017-10-19T00:01:12.962Z,10.50
2017-10-19T00:06:15.018Z,10.40
2017-10-19T00:11:15.990Z,10.30
2017-10-19T00:16:17.762Z,10.20
2017-10-19T00:21:18.817Z,10.20
2017-10-19T00:26:19.886Z,10.10
2017-10-19T00:31:20.944Z,10.10
2017-10-19T00:36:21.998Z,10.20
2017-10-19T00:41:23.055Z,10.20
2017-10-19T00:46:24.108Z,10.20
2017-10-19T00:51:25.179Z,10.20
2017-10-19T00:56:26.233Z,10.30
2017-10-19T01:01:27.286Z,10.40
2017-10-19T01:06:28.350Z,10.40
2017-10-19T01:11:30.130Z,10.30
2017-10-19T01:16:32.952Z,10.30
2017-10-19T01:21:34.078Z,10.30
2017-10-19T01:26:35.134Z,10.30
2017-10-19T01:31:36.202Z,9.90
2017-10-19T01:36:37.257Z,9.80
2017-10-19T01:41:38.330Z,9.60
2017-10-19T01:46:39.357Z,9.80
2017-10-19T01:51:40.424Z,9.80
2017-10-19T01:56:41.491Z,9.80
2017-10-19T02:01:42.553Z,9.70
2017-10-19T02:06:43.597Z,9.80
2017-10-19T02:11:45.381Z,9.60
2017-10-19T02:16:46.441Z,9.50
2017-10-19T02:21:48.244Z,9.60
2017-10-19T02:26:49.274Z,9.50
2017-10-19T02:31:51.050Z,9.70
2017-10-19T02:36:52.826Z,9.30
2017-10-19T02:41:53.861Z,9.20
2017-10-19T02:46:54.945Z,9.00
2017-10-19T02:51:57.026Z,8.80
2017-10-19T02:56:58.101Z,8.80
2017-10-19T03:01:59.125Z,8.80
2017-10-19T03:07:00.201Z,8.90
2017-10-19T03:12:01.265Z,8.90
2017-10-19T03:17:03.332Z,8.90
2017-10-19T03:22:04.414Z,9.00
2017-10-19T03:27:05.446Z,8.80
2017-10-19T03:32:07.535Z,8.70
2017-10-19T03:37:08.586Z,8.70
2017-10-19T03:42:09.665Z,8.70
2017-10-19T03:47:10.719Z,8.70
2017-10-19T03:52:11.769Z,8.70
2017-10-19T03:57:13.541Z,8.90
2017-10-19T04:02:14.594Z,8.80
2017-10-19T04:07:15.658Z,8.80
2017-10-19T04:12:16.717Z,8.70
2017-10-19T04:17:17.773Z,8.80
2017-10-19T04:22:18.841Z,8.80
2017-10-19T04:27:19.985Z,8.70
2017-10-19T04:32:21.074Z,8.60
2017-10-19T04:37:24.150Z,8.60
2017-10-19T04:42:25.941Z,8.80
2017-10-19T04:47:26.929Z,8.70
2017-10-19T04:52:27.938Z,8.80
2017-10-19T04:57:29.684Z,8.90
2017-10-19T05:02:30.667Z,8.80
2017-10-19T05:07:31.649Z,8.80
2017-10-19T05:12:32.613Z,8.80
2017-10-19T05:17:33.593Z,8.70
2017-10-19T05:22:34.582Z,8.80
2017-10-19T05:27:35.556Z,8.90
2017-10-19T05:32:36.522Z,8.90
2017-10-19T05:37:38.224Z,8.90
2017-10-19T05:42:39.208Z,8.80
2017-10-19T05:47:40.201Z,8.90
2017-10-19T05:52:41.178Z,9.00
2017-10-19T05:57:42.161Z,9.00
2017-10-19T06:02:43.161Z,8.90
2017-10-19T06:07:44.167Z,9.00
2017-10-19T06:12:45.187Z,9.10
2017-10-19T06:17:46.199Z,9.10
2017-10-19T06:22:47.214Z,9.10
2017-10-19T06:27:48.230Z,9.20
2017-10-19T06:32:49.232Z,9.20
2017-10-19T06:37:50.243Z,9.20
2017-10-19T06:42:51.242Z,9.20
2017-10-19T06:47:52.261Z,9.20
2017-10-19T06:52:53.261Z,9.40
2017-10-19T06:57:54.258Z,10.20
2017-10-19T07:02:55.266Z,11.00
2017-10-19T07:07:56.276Z,11.50
2017-10-19T07:12:57.293Z,11.80
2017-10-19T07:17:58.324Z,12.20
2017-10-19T07:22:59.320Z,12.60
2017-10-19T07:28:00.330Z,12.30
2017-10-19T07:33:01.333Z,11.90
2017-10-19T07:38:02.336Z,12.60
2017-10-19T07:43:03.358Z,13.30
2017-10-19T07:48:04.366Z,14.00
2017-10-19T07:53:06.118Z,14.90
2017-10-19T07:58:07.117Z,14.80
2017-10-19T08:03:08.105Z,15.30
2017-10-19T08:08:09.135Z,15.70
2017-10-19T08:13:10.181Z,16.20
2017-10-19T08:18:11.199Z,16.50
2017-10-19T08:23:12.210Z,16.70
2017-10-19T08:28:13.212Z,17.40
2017-10-19T08:33:14.222Z,17.10
2017-10-19T08:38:15.242Z,16.60
2017-10-19T08:43:16.249Z,17.90
2017-10-19T08:48:17.330Z,18.50
2017-10-19T08:53:18.359Z,18.50
2017-10-19T08:58:19.363Z,19.20
2017-10-19T09:03:20.381Z,19.40
2017-10-19T09:08:21.410Z,19.60
2017-10-19T09:13:22.431Z,20.10
2017-10-19T09:18:23.454Z,20.60
2017-10-19T09:23:24.470Z,20.50
2017-10-19T09:28:26.253Z,21.10
2017-10-19T09:33:28.017Z,21.40
2017-10-19T09:38:29.786Z,21.80
2017-10-19T09:43:30.817Z,21.70
2017-10-19T09:48:31.822Z,22.30
2017-10-19T09:53:33.571Z,21.70
2017-10-19T09:58:34.588Z,21.50
2017-10-19T10:03:35.621Z,21.10
2017-10-19T10:08:36.633Z,21.00
2017-10-19T10:13:37.657Z,20.30
2017-10-19T10:18:38.681Z,19.80
2017-10-19T10:23:40.414Z,19.90
2017-10-19T10:28:41.409Z,19.90
2017-10-19T10:33:43.155Z,19.50
2017-10-19T10:38:44.161Z,19.30
2017-10-19T10:43:45.181Z,19.50
2017-10-19T10:48:46.219Z,19.50
2017-10-19T10:53:47.211Z,19.20
2017-10-19T10:58:48.227Z,19.50
2017-10-19T11:03:49.206Z,19.30
2017-10-19T11:08:50.211Z,19.30
2017-10-19T11:13:51.234Z,19.20
2017-10-19T11:18:52.221Z,19.50
2017-10-19T11:23:53.215Z,19.60
2017-10-19T11:28:54.200Z,19.80
2017-10-19T11:33:55.211Z,20.00
2017-10-19T11:38:56.199Z,20.00
2017-10-19T11:43:57.207Z,20.20
2017-10-19T11:48:58.215Z,20.30
2017-10-19T11:53:59.217Z,20.00
2017-10-19T11:59:00.222Z,20.20
2017-10-19T12:04:01.234Z,20.30
2017-10-19T12:09:02.243Z,20.50
2017-10-19T12:14:03.259Z,20.40
2017-10-19T12:19:04.271Z,20.50
2017-10-19T12:24:05.289Z,20.70
2017-10-19T12:29:06.282Z,20.60
2017-10-19T12:34:07.298Z,20.80
2017-10-19T12:39:08.325Z,21.00
2017-10-19T12:44:09.298Z,20.90
2017-10-19T12:49:10.306Z,20.90
2017-10-19T12:54:11.308Z,21.00
2017-10-19T12:59:12.325Z,21.20
2017-10-19T13:04:13.331Z,21.30
2017-10-19T13:09:14.338Z,21.30
2017-10-19T13:14:15.355Z,21.40
2017-10-19T13:19:16.361Z,21.50
2017-10-19T13:24:18.122Z,21.50
2017-10-19T13:29:19.118Z,21.40
2017-10-19T13:34:20.119Z,21.50
2017-10-19T13:39:21.146Z,21.50
2017-10-19T13:44:22.149Z,21.40
2017-10-19T13:49:23.145Z,21.40
2017-10-19T13:54:24.129Z,21.40
2017-10-19T13:59:25.125Z,21.30
2017-10-19T14:04:26.905Z,21.30
2017-10-19T14:09:27.899Z,21.20
2017-10-19T14:14:28.902Z,21.20
2017-10-19T14:19:29.935Z,21.20
2017-10-19T14:24:30.938Z,21.10
2017-10-19T14:29:31.931Z,21.10
2017-10-19T14:34:33.107Z,21.10
2017-10-19T14:39:34.110Z,21.10
2017-10-19T14:44:35.353Z,21.00
2017-10-19T14:49:36.354Z,20.90
2017-10-19T14:54:37.578Z,20.90
2017-10-19T14:59:38.562Z,20.90
2017-10-19T15:04:39.795Z,20.90
2017-10-19T15:09:40.794Z,20.80
2017-10-19T15:14:42.124Z,20.70
2017-10-19T15:19:43.113Z,20.70
2017-10-19T15:24:44.279Z,20.60
2017-10-19T15:29:45.279Z,20.60
2017-10-19T15:34:46.429Z,20.60
2017-10-19T15:39:47.433Z,20.60
2017-10-19T15:44:49.389Z,20.40
2017-10-19T15:49:50.398Z,20.30
2017-10-19T15:54:51.706Z,20.20
2017-10-19T15:59:52.697Z,20.20
2017-10-19T16:04:54.036Z,20.10
2017-10-19T16:09:55.046Z,19.90
2017-10-19T16:14:56.254Z,19.80
2017-10-19T16:19:57.243Z,19.70
2017-10-19T16:24:58.318Z,19.50
2017-10-19T16:29:59.314Z,19.20
2017-10-19T16:35:00.322Z,19.10
2017-10-19T16:40:01.477Z,18.80
2017-10-19T16:45:02.550Z,18.80
2017-10-19T16:50:03.755Z,18.60
2017-10-19T16:55:04.859Z,18.50
2017-10-19T17:00:06.091Z,18.40
2017-10-19T17:05:07.880Z,18.10
2017-10-19T17:10:09.121Z,18.00
2017-10-19T17:15:10.226Z,18.10
2017-10-19T17:20:11.446Z,17.90
2017-10-19T17:25:12.658Z,17.80
2017-10-19T17:30:13.874Z,17.70
2017-10-19T17:35:14.962Z,17.70
2017-10-19T17:40:16.189Z,17.60
2017-10-19T17:45:17.304Z,17.60
2017-10-19T17:50:18.462Z,17.50
2017-10-19T17:55:19.605Z,17.30
2017-10-19T18:00:20.677Z,17.20
2017-10-19T18:05:21.898Z,17.00
2017-10-19T18:10:22.999Z,16.90
2017-10-19T18:15:24.542Z,16.90
2017-10-19T18:20:26.432Z,16.90
2017-10-19T18:25:27.972Z,16.80
2017-10-19T18:30:29.062Z,16.80
2017-10-19T18:35:30.292Z,16.80
2017-10-19T18:40:31.490Z,16.70
2017-10-19T18:45:32.918Z,16.70
2017-10-19T18:50:34.001Z,16.50
2017-10-19T18:55:35.070Z,16.50
2017-10-19T19:00:36.424Z,16.40
2017-10-19T19:05:37.485Z,16.20
2017-10-19T19:10:39.452Z,16.00
2017-10-19T19:15:42.578Z,16.00
2017-10-19T19:20:44.085Z,16.00
2017-10-19T19:25:45.213Z,15.90
2017-10-19T19:30:46.261Z,15.80
2017-10-19T19:35:47.426Z,15.60
2017-10-19T19:40:48.863Z,15.60
2017-10-19T19:45:51.994Z,15.50
2017-10-19T19:50:53.437Z,15.40
2017-10-19T19:55:54.550Z,15.30
2017-10-19T20:00:55.961Z,15.30
2017-10-19T20:05:57.053Z,15.20
2017-10-19T20:10:58.587Z,15.00
2017-10-19T20:15:59.686Z,15.00
2017-10-19T20:21:01.116Z,14.90
2017-10-19T20:26:02.223Z,14.90
2017-10-19T20:31:03.436Z,14.70
2017-10-19T20:36:04.527Z,14.70
2017-10-19T20:41:05.597Z,14.70
2017-10-19T20:46:06.758Z,14.80
2017-10-19T20:51:07.931Z,14.70
2017-10-19T20:56:10.109Z,14.70
2017-10-19T21:01:11.160Z,14.70
2017-10-19T21:06:12.214Z,14.70
2017-10-19T21:11:13.262Z,14.70
2017-10-19T21:16:16.276Z,14.60
2017-10-19T21:21:17.347Z,14.50
2017-10-19T21:26:18.396Z,14.50
2017-10-19T21:31:19.437Z,14.50
2017-10-19T21:36:21.238Z,14.20
2017-10-19T21:41:22.282Z,14.20
2017-10-19T21:46:23.353Z,14.20
2017-10-19T21:51:24.414Z,14.10
2017-10-19T21:56:25.454Z,14.00
2017-10-19T22:01:26.613Z,14.00
2017-10-19T22:06:27.775Z,14.00
2017-10-19T22:11:28.838Z,13.90
2017-10-19T22:16:29.893Z,13.90
2017-10-19T22:21:30.960Z,13.80
2017-10-19T22:26:32.214Z,13.90
2017-10-19T22:31:33.286Z,13.80
2017-10-19T22:36:34.429Z,13.80
2017-10-19T22:41:36.536Z,13.70
2017-10-19T22:46:37.578Z,13.70
2017-10-19T22:51:38.642Z,13.70
2017-10-19T22:56:39.699Z,13.60
2017-10-19T23:01:40.873Z,13.60
2017-10-19T23:06:41.913Z,13.60
2017-10-19T23:11:42.994Z,13.60
2017-10-19T23:16:44.055Z,13.60
2017-10-19T23:21:45.085Z,13.50
2017-10-19T23:26:46.962Z,13.40
2017-10-19T23:31:48.034Z,13.40
2017-10-19T23:36:49.088Z,13.40
2017-10-19T23:41:50.157Z,13.50
2017-10-19T23:46:51.301Z,13.60
2017-10-19T23:51:58.815Z,13.60
2017-10-19T23:56:59.884Z,13.50
